createdAt,value
2022-08-22T00:00:49.951Z,70.22
2022-08-22T00:02:48.935Z,72.07
2022-08-22T00:02:49.934Z,72.05
2022-08-22T00:02:54.492Z,72.25
2022-08-22T00:02:57.786Z,70.42
2022-08-22T00:02:58.815Z,71.80
2022-08-22T00:02:59.281Z,70.46
2022-08-22T00:03:24.542Z,71.02
2022-08-22T00:06:01.422Z,70.43
2022-08-22T00:08:32.337Z,70.86
2022-08-22T00:11:02.602Z,71.11
2022-08-22T00:13:36.351Z,69.97
2022-08-22T00:16:13.035Z,70.89
2022-08-22T00:19:01.067Z,71.72
2022-08-22T00:21:30.512Z,69.74
2022-08-22T00:24:30.438Z,70.18
2022-08-22T00:27:07.475Z,71.20
2022-08-22T00:29:38.757Z,70.11
2022-08-22T00:32:13.935Z,70.24
2022-08-22T00:35:01.966Z,69.71
2022-08-22T00:37:34.292Z,70.28
2022-08-22T00:40:28.422Z,69.88
2022-08-22T00:43:08.485Z,70.64
2022-08-22T00:45:39.056Z,70.45
2022-08-22T00:48:14.677Z,70.41
2022-08-22T00:50:49.343Z,70.35
2022-08-22T00:53:19.600Z,69.75
2022-08-22T00:55:52.948Z,69.37
2022-08-22T00:58:49.504Z,69.54
2022-08-22T01:01:17.436Z,69.47
2022-08-22T01:03:44.803Z,69.25
2022-08-22T01:06:24.638Z,68.97
2022-08-22T01:13:05.517Z,69.33
2022-08-22T01:15:34.858Z,69.53
2022-08-22T01:18:16.981Z,69.19
2022-08-22T01:21:04.158Z,69.37
2022-08-22T01:23:52.852Z,69.30
2022-08-22T01:26:33.363Z,69.66
2022-08-22T01:29:11.201Z,69.67
2022-08-22T01:31:41.697Z,69.51
2022-08-22T01:34:16.450Z,69.39
2022-08-22T01:36:53.385Z,69.72
2022-08-22T01:39:46.790Z,69.53
2022-08-22T01:42:26.302Z,69.62
2022-08-22T01:44:53.637Z,69.71
2022-08-22T01:47:23.875Z,69.75
2022-08-22T01:49:57.217Z,70.54
2022-08-22T01:52:39.754Z,69.69
2022-08-22T01:55:12.402Z,69.67
2022-08-22T01:57:56.273Z,68.91
2022-08-22T02:00:35.360Z,69.23
2022-08-22T02:03:08.384Z,70.39
2022-08-22T02:05:37.376Z,68.94
2022-08-22T02:08:14.557Z,69.32
2022-08-22T02:10:58.030Z,69.34
2022-08-22T02:13:41.251Z,69.38
2022-08-22T02:16:16.141Z,68.98
2022-08-22T02:18:54.258Z,70.04
2022-08-22T02:21:23.581Z,69.77
2022-08-22T02:23:58.965Z,69.82
2022-08-22T02:26:26.266Z,69.67
2022-08-22T02:29:03.034Z,68.51
2022-08-22T02:31:36.739Z,69.60
2022-08-22T02:34:15.623Z,69.25
2022-08-22T02:36:47.612Z,69.03
2022-08-22T02:39:35.605Z,68.63
2022-08-22T02:42:08.446Z,68.55
2022-08-22T02:44:37.640Z,69.31
2022-08-22T02:47:25.059Z,69.41
2022-08-22T02:50:07.141Z,69.38
2022-08-22T02:53:02.699Z,69.39
2022-08-22T02:55:31.178Z,68.10
2022-08-22T02:58:07.439Z,68.76
2022-08-22T03:00:43.055Z,69.15
2022-08-22T03:03:16.433Z,69.12
2022-08-22T03:05:44.207Z,69.66
2022-08-22T03:08:21.988Z,69.81
2022-08-22T03:11:10.771Z,68.96
2022-08-22T03:14:09.497Z,69.08
2022-08-22T03:16:52.309Z,69.18
2022-08-22T03:19:22.369Z,69.71
2022-08-22T03:22:10.502Z,69.57
2022-08-22T03:24:41.208Z,69.65
2022-08-22T03:27:27.813Z,69.23
2022-08-22T03:30:05.527Z,68.87
2022-08-22T03:32:53.686Z,69.76
2022-08-22T03:35:27.553Z,69.25
2022-08-22T03:38:28.994Z,68.82
2022-08-22T03:41:10.633Z,68.91
2022-08-22T03:43:58.497Z,69.31
2022-08-22T03:46:49.556Z,69.02
2022-08-22T03:49:26.327Z,69.37
2022-08-22T03:52:13.063Z,68.91
2022-08-22T03:54:40.683Z,69.46
2022-08-22T03:57:20.922Z,69.25
2022-08-22T03:59:58.998Z,69.59
2022-08-22T04:02:41.983Z,70.07
2022-08-22T04:05:14.171Z,69.40
2022-08-22T04:08:11.259Z,69.41
2022-08-22T04:10:44.250Z,69.06
2022-08-22T04:13:25.868Z,69.71
2022-08-22T04:15:53.564Z,70.11
2022-08-22T04:18:34.086Z,69.84
2022-08-22T04:21:20.963Z,69.54
2022-08-22T04:24:13.489Z,69.82
2022-08-22T04:26:46.483Z,68.92
2022-08-22T04:29:20.157Z,69.68
2022-08-22T04:31:51.433Z,69.14
2022-08-22T04:34:21.866Z,69.37
2022-08-22T04:36:51.637Z,69.48
2022-08-22T04:39:24.044Z,69.47
2022-08-22T04:42:16.063Z,69.25
2022-08-22T04:45:05.335Z,68.98
2022-08-22T04:48:06.484Z,69.32
2022-08-22T04:54:49.491Z,67.61
2022-08-22T04:57:17.665Z,68.07
2022-08-22T04:59:46.109Z,67.79
2022-08-22T05:02:20.432Z,68.81
2022-08-22T05:04:55.596Z,68.12
2022-08-22T05:07:27.494Z,69.00
2022-08-22T05:10:11.649Z,69.09
2022-08-22T05:12:41.529Z,68.79
2022-08-22T05:15:18.982Z,68.71
2022-08-22T05:17:52.076Z,69.41
2022-08-22T05:20:22.373Z,68.70
2022-08-22T05:22:52.708Z,68.78
2022-08-22T05:25:23.227Z,68.70
2022-08-22T05:27:56.323Z,67.92
2022-08-22T05:30:26.616Z,67.54
2022-08-22T05:32:55.826Z,69.07
2022-08-22T05:35:38.280Z,67.60
2022-08-22T05:38:07.055Z,69.63
2022-08-22T05:40:37.860Z,67.04
2022-08-22T05:43:09.321Z,68.42
2022-08-22T05:45:40.262Z,67.22
2022-08-22T05:48:11.774Z,68.09
2022-08-22T05:50:43.427Z,69.51
2022-08-22T05:53:12.225Z,69.96
2022-08-22T05:56:03.104Z,68.63
2022-08-22T05:58:44.078Z,68.45
2022-08-22T06:01:28.163Z,66.20
2022-08-22T06:04:07.036Z,66.82
2022-08-22T06:06:38.059Z,66.70
2022-08-22T06:09:08.158Z,67.98
2022-08-22T06:11:35.585Z,68.20
2022-08-22T06:14:14.319Z,68.19
2022-08-22T06:16:47.582Z,66.00
2022-08-22T06:19:19.639Z,67.17
2022-08-22T06:21:58.170Z,66.47
2022-08-22T06:24:27.902Z,67.23
2022-08-22T06:26:58.354Z,66.50
2022-08-22T06:29:37.627Z,66.03
2022-08-22T06:32:30.755Z,66.19
2022-08-22T06:35:20.775Z,66.40
2022-08-22T06:37:50.168Z,64.92
2022-08-22T06:40:24.339Z,65.96
2022-08-22T06:42:56.595Z,68.06
2022-08-22T06:45:31.710Z,67.08
2022-08-22T06:48:00.976Z,66.25
2022-08-22T06:50:31.793Z,67.23
2022-08-22T06:53:01.095Z,66.14
2022-08-22T06:55:29.326Z,66.67
2022-08-22T06:58:09.362Z,67.03
2022-08-22T07:00:39.184Z,67.62
2022-08-22T07:03:08.794Z,65.18
2022-08-22T07:05:38.242Z,64.66
2022-08-22T07:08:08.744Z,66.23
2022-08-22T07:10:40.081Z,63.64
2022-08-22T07:13:14.044Z,65.82
2022-08-22T07:15:43.163Z,66.67
2022-08-22T07:18:21.410Z,64.48
2022-08-22T07:20:53.093Z,62.34
2022-08-22T07:23:41.161Z,63.87
2022-08-22T07:26:28.329Z,64.07
2022-08-22T07:29:11.398Z,63.79
2022-08-22T07:31:51.499Z,64.64
2022-08-22T07:34:21.153Z,64.22
2022-08-22T07:37:07.162Z,66.51
2022-08-22T07:40:16.196Z,62.73
2022-08-22T07:43:05.173Z,63.02
2022-08-22T07:46:16.336Z,62.54
2022-08-22T07:49:09.538Z,60.81
2022-08-22T07:51:38.150Z,62.13
2022-08-22T07:54:09.433Z,62.38
2022-08-22T07:56:42.727Z,61.81
2022-08-22T07:59:14.615Z,61.04
2022-08-22T08:01:51.213Z,62.04
2022-08-22T08:04:24.936Z,61.62
2022-08-22T08:06:55.852Z,60.64
2022-08-22T08:09:25.113Z,60.75
2022-08-22T08:11:55.382Z,59.51
2022-08-22T08:17:10.772Z,59.66
2022-08-22T08:19:44.932Z,59.95
2022-08-22T08:22:17.320Z,59.55
2022-08-22T08:24:46.225Z,60.29
2022-08-22T08:27:36.180Z,59.63
2022-08-22T08:30:20.157Z,60.61
2022-08-22T08:33:25.762Z,60.21
2022-08-22T08:36:02.514Z,59.62
2022-08-22T08:38:40.334Z,61.84
2022-08-22T08:41:28.258Z,60.43
2022-08-22T08:44:04.244Z,59.45
2022-08-22T08:46:39.238Z,60.40
2022-08-22T08:49:13.354Z,60.84
2022-08-22T08:52:00.849Z,61.22
2022-08-22T08:54:45.197Z,62.36
2022-08-22T08:57:26.414Z,62.06
2022-08-22T09:00:12.428Z,61.07
2022-08-22T09:03:07.155Z,60.09
2022-08-22T09:05:47.305Z,61.44
2022-08-22T09:08:42.223Z,61.42
2022-08-22T09:11:14.351Z,60.65
2022-08-22T09:13:50.379Z,60.77
2022-08-22T09:16:31.342Z,60.50
2022-08-22T09:19:10.509Z,62.32
2022-08-22T09:21:40.575Z,61.21
2022-08-22T09:24:30.590Z,59.82
2022-08-22T09:27:10.160Z,58.22
2022-08-22T09:29:54.767Z,59.23
2022-08-22T09:32:35.153Z,60.20
2022-08-22T09:35:08.166Z,59.54
2022-08-22T09:37:42.009Z,59.21
2022-08-22T09:40:19.662Z,60.19
2022-08-22T09:43:04.561Z,59.20
2022-08-22T09:49:27.284Z,60.10
2022-08-22T09:52:33.243Z,60.30
2022-08-22T09:55:27.897Z,60.70
2022-08-22T10:00:44.375Z,63.19
2022-08-22T10:03:19.530Z,60.87
2022-08-22T10:06:03.710Z,62.77
2022-08-22T10:08:40.179Z,62.83
2022-08-22T10:11:31.432Z,63.40
2022-08-22T10:14:04.291Z,62.75
2022-08-22T10:16:54.507Z,62.51
2022-08-22T10:19:32.125Z,64.71
2022-08-22T10:22:21.349Z,62.28
2022-08-22T10:25:01.809Z,61.09
2022-08-22T10:27:48.298Z,64.15
2022-08-22T10:30:17.630Z,64.11
2022-08-22T10:32:47.159Z,62.69
2022-08-22T10:35:27.620Z,62.15
2022-08-22T10:38:07.227Z,61.33
2022-08-22T10:40:43.353Z,58.09
2022-08-22T10:43:12.421Z,60.71
2022-08-22T10:45:44.502Z,59.26
2022-08-22T10:48:14.235Z,58.97
2022-08-22T10:50:50.235Z,58.62
2022-08-22T10:53:34.921Z,58.72
2022-08-22T10:56:06.189Z,57.88
2022-08-22T10:58:55.181Z,58.64
2022-08-22T11:01:38.034Z,59.87
2022-08-22T11:04:19.200Z,57.76
2022-08-22T11:06:57.461Z,54.84
2022-08-22T11:16:42.229Z,53.99
2022-08-22T11:19:24.232Z,53.67
2022-08-22T11:22:01.063Z,55.09
2022-08-22T11:24:34.610Z,56.12
2022-08-22T11:27:25.449Z,55.81
2022-08-22T11:30:18.188Z,56.47
2022-08-22T11:32:49.213Z,54.61
2022-08-22T11:35:20.745Z,56.87
2022-08-22T11:38:00.390Z,57.13
2022-08-22T11:40:31.246Z,56.97
2022-08-22T11:43:21.909Z,57.31
2022-08-22T11:45:53.286Z,56.40
2022-08-22T11:48:35.416Z,55.64
2022-08-22T11:51:13.663Z,54.45
2022-08-22T11:54:12.248Z,55.05
2022-08-22T11:56:43.515Z,54.50
2022-08-22T11:59:18.554Z,53.61
2022-08-22T12:02:03.943Z,53.81
2022-08-22T12:04:54.466Z,55.60
2022-08-22T12:07:30.400Z,54.86
2022-08-22T12:10:16.986Z,56.47
2022-08-22T12:12:50.479Z,54.93
2022-08-22T12:15:25.980Z,55.85
2022-08-22T12:18:14.354Z,55.11
2022-08-22T12:20:55.281Z,55.76
2022-08-22T12:23:49.460Z,56.16
2022-08-22T12:26:30.312Z,54.94
2022-08-22T12:29:02.363Z,53.57
2022-08-22T12:31:35.519Z,55.00
2022-08-22T12:34:32.164Z,54.49
2022-08-22T12:37:04.569Z,54.96
2022-08-22T12:39:51.775Z,53.12
2022-08-22T12:42:27.494Z,52.64
2022-08-22T12:45:04.418Z,54.06
2022-08-22T12:47:42.430Z,52.67
2022-08-22T12:50:18.276Z,53.66
2022-08-22T12:52:54.483Z,54.45
2022-08-22T12:55:41.664Z,54.11
2022-08-22T12:58:22.423Z,56.84
2022-08-22T13:00:53.454Z,58.80
2022-08-22T13:03:45.562Z,59.36
2022-08-22T13:06:35.327Z,59.40
2022-08-22T13:09:39.239Z,56.08
2022-08-22T13:12:19.962Z,55.69
2022-08-22T13:15:04.264Z,57.09
2022-08-22T13:17:36.764Z,56.43
2022-08-22T13:20:12.680Z,58.84
2022-08-22T13:22:45.353Z,58.64
2022-08-22T13:25:25.459Z,59.81
2022-08-22T13:28:02.571Z,59.92
2022-08-22T13:30:37.625Z,60.14
2022-08-22T13:33:10.281Z,58.77
2022-08-22T13:38:29.382Z,59.21
2022-08-22T13:40:59.379Z,58.55
2022-08-22T13:43:30.406Z,58.69
2022-08-22T13:46:02.448Z,58.33
2022-08-22T13:48:56.665Z,57.97
2022-08-22T13:54:13.504Z,54.38
2022-08-22T14:00:05.842Z,55.20
2022-08-22T14:05:30.279Z,54.39
2022-08-22T14:08:04.829Z,54.47
2022-08-22T14:10:46.433Z,54.41
2022-08-22T14:13:41.526Z,54.11
2022-08-22T14:16:28.316Z,53.47
2022-08-22T14:21:41.304Z,54.62
2022-08-22T14:24:14.363Z,54.64
2022-08-22T14:26:51.379Z,54.63
2022-08-22T14:29:21.533Z,54.96
2022-08-22T14:32:00.505Z,54.60
2022-08-22T14:34:29.597Z,54.69
2022-08-22T14:37:07.591Z,55.27
2022-08-22T14:39:47.098Z,56.28
2022-08-22T14:42:30.071Z,56.18
2022-08-22T14:45:06.649Z,57.07
2022-08-22T14:47:55.151Z,56.50
2022-08-22T14:50:54.327Z,57.32
2022-08-22T14:53:30.172Z,56.67
2022-08-22T14:56:04.311Z,56.38
2022-08-22T14:58:36.410Z,56.64
2022-08-22T15:01:11.463Z,57.49
2022-08-22T15:03:42.499Z,57.51
2022-08-22T15:06:17.869Z,57.23
2022-08-22T15:08:55.377Z,57.23
2022-08-22T15:11:33.380Z,57.02
2022-08-22T15:14:13.492Z,57.96
2022-08-22T15:16:44.314Z,58.15
2022-08-22T15:22:25.829Z,57.69
2022-08-22T15:25:04.634Z,57.22
2022-08-22T15:28:00.309Z,57.02
2022-08-22T15:33:25.273Z,57.26
2022-08-22T15:38:40.088Z,59.07
2022-08-22T15:41:31.095Z,59.87
2022-08-22T15:44:08.017Z,60.04
2022-08-22T15:46:45.440Z,60.00
2022-08-22T15:49:22.402Z,59.77
2022-08-22T15:54:51.250Z,59.46
2022-08-22T15:57:26.334Z,59.46
2022-08-22T16:00:18.870Z,60.14
2022-08-22T16:02:58.267Z,59.66
2022-08-22T16:08:16.887Z,59.63
2022-08-22T16:10:50.536Z,61.32
2022-08-22T16:13:27.274Z,61.17
2022-08-22T16:16:01.297Z,61.14
2022-08-22T16:18:38.277Z,61.32
2022-08-22T16:21:09.901Z,62.07
2022-08-22T16:23:51.145Z,61.76
2022-08-22T16:26:23.282Z,61.86
2022-08-22T16:28:59.517Z,61.06
2022-08-22T16:31:56.677Z,62.01
2022-08-22T16:37:31.454Z,62.96
2022-08-22T16:40:05.266Z,62.45
2022-08-22T16:42:38.653Z,62.29
2022-08-22T16:45:25.303Z,61.49
2022-08-22T16:48:09.030Z,61.72
2022-08-22T16:50:43.488Z,62.29
2022-08-22T16:53:28.848Z,62.73
2022-08-22T16:56:11.324Z,63.39
2022-08-22T16:59:03.378Z,62.80
2022-08-22T17:02:00.602Z,63.30
2022-08-22T17:07:22.566Z,62.25
2022-08-22T17:10:00.838Z,62.92
2022-08-22T17:12:38.337Z,63.31
2022-08-22T17:15:12.283Z,61.98
2022-08-22T17:17:53.882Z,62.01
2022-08-22T17:20:32.714Z,63.44
2022-08-22T17:23:14.290Z,63.35
2022-08-22T17:25:46.314Z,63.45
2022-08-22T17:28:42.742Z,62.87
2022-08-22T17:31:12.992Z,63.94
2022-08-22T17:33:52.955Z,63.37
2022-08-22T17:39:15.424Z,63.48
2022-08-22T17:41:56.211Z,63.32
2022-08-22T17:47:52.873Z,64.34
2022-08-22T17:50:43.347Z,64.90
2022-08-22T17:53:24.555Z,66.19
2022-08-22T17:56:14.210Z,65.53
2022-08-22T17:59:02.529Z,66.71
2022-08-22T18:09:58.348Z,64.60
2022-08-22T18:18:17.446Z,64.67
2022-08-22T18:20:58.156Z,65.02
2022-08-22T18:23:40.570Z,63.99
2022-08-22T18:26:27.094Z,66.02
2022-08-22T18:34:33.705Z,64.70
2022-08-22T18:37:25.618Z,65.25
2022-08-22T18:42:56.200Z,65.64
2022-08-22T18:45:44.809Z,65.26
2022-08-22T18:51:30.720Z,65.47
2022-08-22T18:56:52.339Z,64.62
2022-08-22T18:59:32.805Z,65.97
2022-08-22T19:02:23.441Z,64.73
2022-08-22T19:08:02.830Z,65.16
2022-08-22T19:10:43.925Z,65.90
2022-08-22T19:19:17.173Z,65.28
2022-08-22T19:22:19.753Z,65.96
2022-08-22T19:27:44.741Z,65.95
2022-08-22T19:33:38.678Z,65.65
2022-08-22T19:41:52.681Z,67.05
2022-08-22T19:47:17.834Z,66.72
2022-08-22T19:49:50.385Z,66.15
2022-08-22T20:03:34.592Z,66.06
2022-08-22T20:06:33.563Z,66.75
2022-08-22T20:09:09.509Z,65.61
2022-08-22T20:11:46.965Z,66.57
2022-08-22T20:14:18.361Z,65.62
2022-08-22T20:16:56.726Z,65.95
2022-08-22T20:19:42.633Z,65.21
2022-08-22T20:22:18.710Z,66.02
2022-08-22T20:24:59.356Z,65.35
2022-08-22T20:27:27.443Z,65.51
2022-08-22T20:30:07.815Z,65.72
2022-08-22T20:32:49.228Z,65.78
2022-08-22T20:35:26.569Z,64.69
2022-08-22T20:38:06.686Z,65.78
2022-08-22T20:41:01.754Z,66.16
2022-08-22T20:43:49.301Z,65.06
2022-08-22T20:46:24.476Z,65.11
2022-08-22T20:48:55.117Z,65.04
2022-08-22T20:51:33.829Z,64.54
2022-08-22T20:54:09.971Z,64.64
2022-08-22T20:57:01.383Z,64.87
2022-08-22T20:59:38.250Z,64.31
2022-08-22T21:02:08.418Z,64.52
2022-08-22T21:04:47.406Z,65.12
2022-08-22T21:07:28.690Z,65.76
2022-08-22T21:10:22.067Z,64.69
2022-08-22T21:13:09.844Z,66.23
2022-08-22T21:15:39.582Z,65.99
2022-08-22T21:18:07.119Z,66.42
2022-08-22T21:20:40.891Z,65.73
2022-08-22T21:23:15.566Z,67.28
2022-08-22T21:25:58.022Z,66.82
2022-08-22T21:28:34.566Z,65.23
2022-08-22T21:31:08.779Z,65.70
2022-08-22T21:33:41.629Z,66.10
2022-08-22T21:36:25.536Z,66.51
2022-08-22T21:39:13.315Z,65.33
2022-08-22T21:42:07.808Z,66.51
2022-08-22T21:44:59.289Z,66.62
2022-08-22T21:47:53.138Z,66.62
2022-08-22T21:50:38.136Z,65.97
2022-08-22T21:53:29.445Z,65.79
2022-08-22T21:56:12.676Z,66.12
2022-08-22T21:59:50.446Z,66.65
2022-08-22T22:02:29.472Z,66.59
2022-08-22T22:04:59.887Z,67.23
2022-08-22T22:07:27.275Z,65.99
2022-08-22T22:09:55.202Z,66.78
2022-08-22T22:12:25.642Z,66.67
2022-08-22T22:14:53.327Z,66.76
2022-08-22T22:17:20.617Z,67.23
2022-08-22T22:19:48.479Z,66.48
2022-08-22T22:22:18.256Z,66.32
2022-08-22T22:24:45.699Z,66.95
2022-08-22T22:27:16.923Z,66.39
2022-08-22T22:29:45.330Z,67.19
2022-08-22T22:32:12.850Z,66.56
2022-08-22T22:34:40.900Z,66.47
2022-08-22T22:37:09.382Z,66.78
2022-08-22T22:39:36.914Z,66.69
2022-08-22T22:42:09.382Z,66.73
2022-08-22T22:44:37.038Z,68.24
2022-08-22T22:47:05.252Z,67.61
2022-08-22T22:49:33.401Z,66.71
2022-08-22T22:52:00.776Z,67.36
2022-08-22T22:54:29.716Z,67.32
2022-08-22T22:56:58.521Z,67.57
2022-08-22T22:59:26.441Z,66.29
2022-08-22T23:02:15.501Z,66.60
2022-08-22T23:04:44.727Z,65.94
2022-08-22T23:07:13.535Z,66.10
2022-08-22T23:09:44.901Z,67.66
2022-08-22T23:12:15.645Z,67.16
2022-08-22T23:14:45.195Z,66.48
2022-08-22T23:17:12.774Z,65.78
2022-08-22T23:19:42.401Z,65.50
2022-08-22T23:22:13.984Z,65.38
2022-08-22T23:24:42.830Z,66.25
2022-08-22T23:27:11.175Z,66.42
2022-08-22T23:29:44.338Z,67.87
2022-08-22T23:32:12.660Z,66.47
2022-08-22T23:34:46.341Z,66.66
2022-08-22T23:37:21.788Z,67.06
2022-08-22T23:40:10.692Z,67.32
2022-08-22T23:42:59.400Z,66.53
2022-08-22T23:45:43.966Z,66.52
2022-08-22T23:48:11.843Z,66.89
2022-08-22T23:50:39.206Z,66.00
2022-08-22T23:53:06.807Z,65.93
2022-08-22T23:55:34.376Z,65.56
2022-08-22T23:58:02.057Z,65.89
